createdAt,value
2018-09-29T00:02:24.375Z,99008.50
2018-09-29T00:04:53.052Z,99004.20
2018-09-29T00:07:21.738Z,99006.62
2018-09-29T00:09:50.482Z,99008.80
2018-09-29T00:12:19.214Z,99012.30
2018-09-29T00:14:48.157Z,99015.80
2018-09-29T00:17:16.913Z,99023.91
2018-09-29T00:19:45.617Z,99021.75
2018-09-29T00:22:14.529Z,99031.20
2018-09-29T00:24:43.172Z,99024.73
2018-09-29T00:27:11.866Z,99015.82
2018-09-29T00:29:40.870Z,99005.03
2018-09-29T00:32:09.523Z,99009.91
2018-09-29T00:34:38.225Z,99005.02
2018-09-29T00:37:07.046Z,99006.64
2018-09-29T00:39:35.701Z,99007.21
2018-09-29T00:42:04.362Z,99009.09
2018-09-29T00:44:33.092Z,99008.00
2018-09-29T00:47:01.842Z,99004.77
2018-09-29T00:49:30.645Z,99004.52
2018-09-29T00:51:59.570Z,98998.59
2018-09-29T00:54:28.317Z,98998.30
2018-09-29T00:56:57.070Z,98998.29
2018-09-29T00:59:26.142Z,99000.73
2018-09-29T01:01:54.786Z,98997.22
2018-09-29T01:04:23.473Z,98993.44
2018-09-29T01:06:52.302Z,98999.89
2018-09-29T01:09:21.021Z,98995.05
2018-09-29T01:11:49.726Z,98996.95
2018-09-29T01:14:18.789Z,98997.98
2018-09-29T01:16:47.541Z,98993.10
2018-09-29T01:19:16.322Z,98996.05
2018-09-29T01:21:45.225Z,98987.98
2018-09-29T01:24:14.254Z,98988.50
2018-09-29T01:26:42.989Z,98984.22
2018-09-29T01:29:11.839Z,98977.98
2018-09-29T01:31:40.731Z,98966.41
2018-09-29T01:34:09.689Z,98975.58
2018-09-29T01:36:38.506Z,98974.19
2018-09-29T01:39:08.997Z,98969.34
2018-09-29T01:41:37.661Z,98975.28
2018-09-29T01:44:06.478Z,98971.75
2018-09-29T01:46:35.145Z,98976.33
2018-09-29T01:49:04.097Z,98973.60
2018-09-29T01:51:33.290Z,98971.19
2018-09-29T01:54:01.911Z,98972.83
2018-09-29T01:56:31.075Z,98968.73
2018-09-29T01:58:59.872Z,98976.24
2018-09-29T02:01:28.514Z,98988.63
2018-09-29T02:03:57.325Z,98989.44
2018-09-29T02:06:25.995Z,98986.27
2018-09-29T02:08:54.709Z,98987.52
2018-09-29T02:11:23.514Z,98992.83
2018-09-29T02:13:52.356Z,98990.41
2018-09-29T02:16:21.040Z,98994.17
2018-09-29T02:18:50.032Z,98999.02
2018-09-29T02:21:18.811Z,98988.48
2018-09-29T02:23:47.693Z,98986.83
2018-09-29T02:26:16.589Z,98991.90
2018-09-29T02:28:45.396Z,98994.63
2018-09-29T02:31:14.219Z,99004.31
2018-09-29T02:33:43.309Z,98997.01
2018-09-29T02:36:11.969Z,98997.27
2018-09-29T02:38:40.666Z,98998.34
2018-09-29T02:41:09.579Z,98996.20
2018-09-29T02:43:38.267Z,99000.19
2018-09-29T02:46:06.970Z,98995.11
2018-09-29T02:48:35.948Z,98995.34
2018-09-29T02:51:04.801Z,98985.66
2018-09-29T02:53:33.637Z,98990.77
2018-09-29T02:56:02.519Z,98996.91
2018-09-29T02:58:31.333Z,98999.06
2018-09-29T03:01:00.095Z,98996.33
2018-09-29T03:03:28.924Z,99001.43
2018-09-29T03:05:57.677Z,99001.31
2018-09-29T03:08:26.358Z,98995.40
2018-09-29T03:10:55.045Z,99002.05
2018-09-29T03:13:23.745Z,99010.87
2018-09-29T03:15:52.506Z,99016.63
2018-09-29T03:18:21.295Z,99014.36
2018-09-29T03:20:49.980Z,99019.67
2018-09-29T03:23:18.770Z,99021.49
2018-09-29T03:25:47.455Z,99019.60
2018-09-29T03:28:16.168Z,99022.62
2018-09-29T03:30:44.833Z,99024.56
2018-09-29T03:33:13.550Z,99020.55
2018-09-29T03:35:42.212Z,99028.55
2018-09-29T03:38:10.882Z,99021.00
2018-09-29T03:40:39.897Z,99021.22
2018-09-29T03:43:08.566Z,99016.37
2018-09-29T03:45:37.256Z,99015.02
2018-09-29T03:48:06.067Z,99011.21
2018-09-29T03:50:34.856Z,99013.62
2018-09-29T03:53:03.631Z,99017.11
2018-09-29T03:55:32.433Z,99013.03
2018-09-29T03:58:01.059Z,99015.40
2018-09-29T04:00:30.043Z,99020.17
2018-09-29T04:02:58.917Z,99020.17
2018-09-29T04:05:27.607Z,99020.41
2018-09-29T04:07:56.349Z,99018.75
2018-09-29T04:10:25.080Z,99017.05
2018-09-29T04:12:53.733Z,99026.50
2018-09-29T04:15:22.561Z,99020.34
2018-09-29T04:17:51.303Z,99026.20
2018-09-29T04:20:20.216Z,99031.81
2018-09-29T04:22:48.967Z,99038.25
2018-09-29T04:25:17.745Z,99039.25
2018-09-29T04:27:46.493Z,99040.30
2018-09-29T04:30:15.297Z,99045.12
2018-09-29T04:32:44.159Z,99051.75
2018-09-29T04:35:12.826Z,99052.42
2018-09-29T04:37:41.577Z,99050.52
2018-09-29T04:40:10.389Z,99050.50
2018-09-29T04:42:39.082Z,99049.50
2018-09-29T04:45:07.985Z,99052.33
2018-09-29T04:47:36.777Z,99055.22
2018-09-29T04:50:05.657Z,99059.75
2018-09-29T04:52:34.445Z,99059.16
2018-09-29T04:55:03.085Z,99058.52
2018-09-29T04:57:32.042Z,99059.94
2018-09-29T05:00:00.709Z,99051.89
2018-09-29T05:02:29.489Z,99054.89
2018-09-29T05:04:58.145Z,99051.67
2018-09-29T05:07:26.885Z,99058.77
2018-09-29T05:09:55.592Z,99052.32
2018-09-29T05:12:24.353Z,99048.58
2018-09-29T05:14:53.085Z,99049.91
2018-09-29T05:17:21.921Z,99047.80
2018-09-29T05:19:50.573Z,99054.22
2018-09-29T05:22:19.424Z,99063.30
2018-09-29T05:24:48.189Z,99061.15
2018-09-29T05:27:16.857Z,99063.83
2018-09-29T05:29:45.701Z,99069.20
2018-09-29T05:32:14.357Z,99064.64
2018-09-29T05:34:43.149Z,99065.73
2018-09-29T05:37:12.369Z,99075.42
2018-09-29T05:39:41.017Z,99077.63
2018-09-29T05:42:09.717Z,99081.13
2018-09-29T05:44:38.630Z,99079.53
2018-09-29T05:47:07.286Z,99084.00
2018-09-29T05:49:36.070Z,99091.34
2018-09-29T05:52:04.934Z,99090.36
2018-09-29T05:54:34.004Z,99096.88
2018-09-29T05:57:03.209Z,99101.18
2018-09-29T05:59:31.901Z,99100.38
2018-09-29T06:02:00.593Z,99096.28
2018-09-29T06:04:29.838Z,99101.23
2018-09-29T06:06:58.681Z,99102.93
2018-09-29T06:09:27.352Z,99103.80
2018-09-29T06:11:56.198Z,99110.51
2018-09-29T06:14:24.910Z,99105.42
2018-09-29T06:16:53.563Z,99115.70
2018-09-29T06:19:22.501Z,99116.86
2018-09-29T06:21:51.260Z,99121.62
2018-09-29T06:24:20.310Z,99119.59
2018-09-29T06:26:49.001Z,99122.13
2018-09-29T06:29:17.680Z,99124.18
2018-09-29T06:31:46.410Z,99125.25
2018-09-29T06:34:15.607Z,99126.03
2018-09-29T06:36:44.381Z,99126.59
2018-09-29T06:39:13.113Z,99123.55
2018-09-29T06:41:41.780Z,99125.27
2018-09-29T06:44:10.429Z,99123.80
2018-09-29T06:46:39.105Z,99119.42
2018-09-29T06:49:07.738Z,99124.37
2018-09-29T06:51:36.365Z,99129.03
2018-09-29T06:54:05.236Z,99133.06
2018-09-29T06:56:33.873Z,99132.86
2018-09-29T06:59:02.681Z,99131.38
2018-09-29T07:01:31.410Z,99138.41
2018-09-29T07:04:00.084Z,99138.48
2018-09-29T07:06:29.225Z,99143.09
2018-09-29T07:08:57.909Z,99140.86
2018-09-29T07:11:26.642Z,99143.13
2018-09-29T07:13:55.748Z,99141.23
2018-09-29T07:16:24.413Z,99145.42
2018-09-29T07:18:53.327Z,99141.96
2018-09-29T07:21:22.092Z,99145.95
2018-09-29T07:23:50.725Z,99141.99
2018-09-29T07:26:19.486Z,99147.25
2018-09-29T07:28:48.193Z,99149.93
2018-09-29T07:31:17.248Z,99139.99
2018-09-29T07:33:45.945Z,99148.97
2018-09-29T07:36:14.621Z,99144.36
2018-09-29T07:38:43.559Z,99148.80
2018-09-29T07:41:12.383Z,99151.59
2018-09-29T07:43:41.348Z,99151.12
2018-09-29T07:46:10.084Z,99144.81
2018-09-29T07:48:38.726Z,99134.84
2018-09-29T07:51:07.465Z,99140.32
2018-09-29T07:53:36.175Z,99144.14
2018-09-29T07:56:05.638Z,99140.41
2018-09-29T07:58:35.978Z,99134.82
2018-09-29T08:01:04.679Z,99130.63
2018-09-29T08:03:33.458Z,99131.19
2018-09-29T08:06:02.258Z,99127.70
2018-09-29T08:08:31.176Z,99123.98
2018-09-29T08:10:59.832Z,99115.88
2018-09-29T08:13:28.513Z,99119.67
2018-09-29T08:15:57.432Z,99112.14
2018-09-29T08:18:26.166Z,99121.58
2018-09-29T08:20:54.838Z,99107.30
2018-09-29T08:23:23.840Z,99106.18
2018-09-29T08:25:52.549Z,99103.47
2018-09-29T08:28:21.361Z,99105.34
2018-09-29T08:30:50.038Z,99101.03
2018-09-29T08:33:18.740Z,99102.08
2018-09-29T08:35:47.740Z,99106.08
2018-09-29T08:38:16.600Z,99098.50
2018-09-29T08:40:45.309Z,99102.53
2018-09-29T08:43:14.129Z,99101.73
2018-09-29T08:45:42.925Z,99104.66
2018-09-29T08:48:11.614Z,99105.45
2018-09-29T08:50:40.506Z,99102.67
2018-09-29T08:53:09.266Z,99105.14
2018-09-29T08:55:37.970Z,99107.24
2018-09-29T08:58:06.659Z,99106.73
2018-09-29T09:00:35.623Z,99104.02
2018-09-29T09:03:04.389Z,99113.38
2018-09-29T09:05:33.170Z,99117.94
2018-09-29T09:08:02.148Z,99115.52
2018-09-29T09:10:31.059Z,99113.05
2018-09-29T09:12:59.774Z,99108.13
2018-09-29T09:15:28.529Z,99114.53
2018-09-29T09:17:57.207Z,99116.87
2018-09-29T09:20:25.928Z,99114.71
2018-09-29T09:22:54.750Z,99107.30
2018-09-29T09:25:23.423Z,99096.95
2018-09-29T09:27:52.053Z,99092.80
2018-09-29T09:30:20.988Z,99077.81
2018-09-29T09:32:49.796Z,99087.48
2018-09-29T09:35:18.569Z,99086.53
2018-09-29T09:37:47.249Z,99083.05
2018-09-29T09:40:15.926Z,99067.94
2018-09-29T09:42:44.741Z,99064.72
2018-09-29T09:45:13.536Z,99064.64
2018-09-29T09:47:42.201Z,99069.46
2018-09-29T09:50:10.931Z,99066.70
2018-09-29T09:52:39.934Z,99067.04
2018-09-29T09:55:08.881Z,99059.30
2018-09-29T09:57:37.701Z,99056.70
2018-09-29T10:00:06.574Z,99050.39
2018-09-29T10:02:40.454Z,99046.88
2018-09-29T10:05:09.254Z,99035.98
2018-09-29T10:07:38.190Z,99038.75
2018-09-29T10:10:06.973Z,99038.03
2018-09-29T10:12:35.727Z,99040.75
2018-09-29T10:15:04.715Z,99039.69
2018-09-29T10:17:33.613Z,99046.52
2018-09-29T10:20:02.750Z,99035.22
2018-09-29T10:22:31.478Z,99026.34
2018-09-29T10:25:00.137Z,99029.23
2018-09-29T10:27:29.023Z,99030.20
2018-09-29T10:29:57.702Z,99027.44
2018-09-29T10:32:26.783Z,99022.75
2018-09-29T10:34:55.649Z,99028.88
2018-09-29T10:37:24.517Z,99029.48
2018-09-29T10:39:53.250Z,99028.88
2018-09-29T10:42:21.950Z,99034.95
2018-09-29T10:44:50.605Z,99029.89
2018-09-29T10:47:19.409Z,99031.07
2018-09-29T10:49:51.024Z,99023.49
2018-09-29T10:52:19.819Z,99014.67
2018-09-29T10:54:48.950Z,99013.13
2018-09-29T10:57:17.705Z,99018.61
2018-09-29T10:59:46.554Z,99011.44
2018-09-29T11:02:15.274Z,99005.41
2018-09-29T11:04:43.967Z,99002.27
2018-09-29T11:07:12.993Z,99001.47
2018-09-29T11:09:41.651Z,99004.56
2018-09-29T11:12:10.369Z,98995.48
2018-09-29T11:14:39.248Z,98994.84
2018-09-29T11:17:07.926Z,98992.97
2018-09-29T11:19:36.729Z,98985.77
2018-09-29T11:22:05.634Z,98982.55
2018-09-29T11:24:34.711Z,98980.00
2018-09-29T11:27:03.596Z,98972.00
2018-09-29T11:29:32.394Z,98970.53
2018-09-29T11:32:01.195Z,98964.47
2018-09-29T11:34:29.869Z,98957.40
2018-09-29T11:36:58.721Z,98957.25
2018-09-29T11:39:27.522Z,98954.08
2018-09-29T11:41:56.364Z,98943.80
2018-09-29T11:44:25.448Z,98941.30
2018-09-29T11:46:54.150Z,98938.42
2018-09-29T11:49:22.882Z,98933.41
2018-09-29T11:51:51.708Z,98929.56
2018-09-29T11:54:20.397Z,98929.45
2018-09-29T11:56:49.178Z,98920.20
2018-09-29T11:59:18.073Z,98914.61
2018-09-29T12:01:46.850Z,98910.25
2018-09-29T12:04:15.610Z,98907.48
2018-09-29T12:06:44.413Z,98893.46
2018-09-29T12:09:14.085Z,98892.66
2018-09-29T12:11:43.333Z,98884.36
2018-09-29T12:14:12.032Z,98874.05
2018-09-29T12:16:40.808Z,98870.75
2018-09-29T12:19:09.496Z,98850.89
2018-09-29T12:21:38.153Z,98852.91
2018-09-29T12:24:06.991Z,98849.23
2018-09-29T12:26:36.213Z,98840.03
2018-09-29T12:29:04.889Z,98832.78
2018-09-29T12:31:33.640Z,98828.20
2018-09-29T12:34:02.506Z,98824.08
2018-09-29T12:36:32.726Z,98826.92
2018-09-29T12:39:01.671Z,98810.98
2018-09-29T12:41:30.462Z,98818.70
2018-09-29T12:43:59.165Z,98822.70
2018-09-29T12:46:28.301Z,98811.03
2018-09-29T12:48:57.006Z,98804.98
2018-09-29T12:51:26.062Z,98807.02
2018-09-29T12:53:54.756Z,98799.06
2018-09-29T12:56:23.386Z,98797.16
2018-09-29T12:58:52.164Z,98796.42
2018-09-29T13:01:20.983Z,98797.86
2018-09-29T13:03:49.854Z,98795.11
2018-09-29T13:06:18.766Z,98789.95
2018-09-29T13:08:47.553Z,98776.50
2018-09-29T13:11:16.234Z,98783.52
2018-09-29T13:13:44.978Z,98783.20
2018-09-29T13:16:13.910Z,98780.45
2018-09-29T13:18:42.570Z,98782.30
2018-09-29T13:21:11.499Z,98779.19
2018-09-29T13:23:40.258Z,98768.23
2018-09-29T13:26:08.993Z,98765.22
2018-09-29T13:28:37.853Z,98772.27
2018-09-29T13:31:06.598Z,98761.84
2018-09-29T13:33:35.361Z,98754.23
2018-09-29T13:36:04.229Z,98757.81
2018-09-29T13:38:32.964Z,98754.80
2018-09-29T13:41:01.666Z,98755.53
2018-09-29T13:43:30.362Z,98743.83
2018-09-29T13:45:59.316Z,98751.98
2018-09-29T13:48:28.382Z,98752.48
2018-09-29T13:50:57.070Z,98744.05
2018-09-29T13:53:25.821Z,98750.73
2018-09-29T13:55:54.643Z,98745.83
2018-09-29T13:58:23.603Z,98747.95
2018-09-29T14:00:52.624Z,98752.64
2018-09-29T14:03:21.379Z,98741.54
2018-09-29T14:05:50.070Z,98747.59
2018-09-29T14:08:18.986Z,98749.33
2018-09-29T14:10:47.869Z,98749.17
2018-09-29T14:13:17.295Z,98748.52
2018-09-29T14:15:46.048Z,98744.22
2018-09-29T14:18:14.709Z,98741.64
2018-09-29T14:20:43.379Z,98738.47
2018-09-29T14:23:12.023Z,98737.43
2018-09-29T14:25:40.857Z,98736.55
2018-09-29T14:28:16.245Z,98739.73
2018-09-29T14:30:45.259Z,98737.30
2018-09-29T14:33:14.237Z,98742.61
2018-09-29T14:35:42.890Z,98737.44
2018-09-29T14:38:11.965Z,98731.89
2018-09-29T14:40:40.739Z,98729.23
2018-09-29T14:43:09.630Z,98732.70
2018-09-29T14:45:38.661Z,98733.63
2018-09-29T14:48:07.539Z,98730.33
2018-09-29T14:50:36.361Z,98729.95
2018-09-29T14:53:05.223Z,98724.64
2018-09-29T14:55:34.242Z,98720.08
2018-09-29T14:58:02.970Z,98722.55
2018-09-29T15:00:31.736Z,98718.94
2018-09-29T15:03:00.629Z,98719.67
2018-09-29T15:05:29.306Z,98718.50
2018-09-29T15:07:58.139Z,98706.63
2018-09-29T15:10:26.939Z,98715.06
2018-09-29T15:12:55.842Z,98710.19
2018-09-29T15:15:24.543Z,98702.48
2018-09-29T15:17:53.250Z,98699.77
2018-09-29T15:20:22.181Z,98703.91
2018-09-29T15:22:50.945Z,98704.23
2018-09-29T15:25:19.667Z,98695.17
2018-09-29T15:27:48.748Z,98696.67
2018-09-29T15:30:17.442Z,98690.51
2018-09-29T15:32:46.073Z,98691.30
2018-09-29T15:35:14.823Z,98692.42
2018-09-29T15:37:43.604Z,98686.60
2018-09-29T15:40:12.399Z,98689.94
2018-09-29T15:42:41.195Z,98688.75
2018-09-29T15:45:10.546Z,98689.81
2018-09-29T15:47:39.277Z,98688.05
2018-09-29T15:50:08.653Z,98692.27
2018-09-29T15:52:37.539Z,98685.60
2018-09-29T15:55:06.624Z,98687.68
2018-09-29T15:57:35.534Z,98681.33
2018-09-29T16:00:04.530Z,98684.58
2018-09-29T16:02:33.417Z,98675.06
2018-09-29T16:05:02.206Z,98677.42
2018-09-29T16:07:30.997Z,98676.78
2018-09-29T16:09:59.929Z,98674.26
2018-09-29T16:12:28.908Z,98669.63
2018-09-29T16:14:57.897Z,98661.59
2018-09-29T16:17:27.015Z,98667.55
2018-09-29T16:19:55.806Z,98665.91
2018-09-29T16:22:24.524Z,98669.19
2018-09-29T16:24:53.365Z,98660.31
2018-09-29T16:27:22.151Z,98665.30
2018-09-29T16:29:50.809Z,98662.63
2018-09-29T16:32:20.032Z,98661.02
2018-09-29T16:34:48.805Z,98660.66
2018-09-29T16:37:17.805Z,98654.37
2018-09-29T16:39:46.509Z,98655.98
2018-09-29T16:42:15.249Z,98657.70
2018-09-29T16:44:44.084Z,98660.66
2018-09-29T16:47:12.810Z,98658.61
2018-09-29T16:49:41.649Z,98658.78
2018-09-29T16:52:10.575Z,98663.34
2018-09-29T16:54:39.299Z,98664.49
2018-09-29T16:57:08.121Z,98660.09
2018-09-29T16:59:36.921Z,98658.84
2018-09-29T17:02:05.593Z,98660.98
2018-09-29T17:04:34.472Z,98662.99
2018-09-29T17:07:03.087Z,98664.05
2018-09-29T17:09:32.181Z,98666.05
2018-09-29T17:12:00.926Z,98661.89
2018-09-29T17:14:29.613Z,98657.17
2018-09-29T17:16:58.313Z,98655.91
2018-09-29T17:19:27.033Z,98657.88
2018-09-29T17:21:55.872Z,98655.86
2018-09-29T17:24:24.508Z,98655.70
2018-09-29T17:26:53.282Z,98657.14
2018-09-29T17:29:21.981Z,98663.25
2018-09-29T17:31:50.826Z,98659.02
2018-09-29T17:34:19.761Z,98663.22
2018-09-29T17:36:48.554Z,98662.25
2018-09-29T17:39:17.333Z,98662.36
2018-09-29T17:41:46.117Z,98663.79
2018-09-29T17:44:14.774Z,98659.30
2018-09-29T17:46:43.839Z,98658.30
2018-09-29T17:49:12.489Z,98657.77
2018-09-29T17:51:41.215Z,98657.63
2018-09-29T17:54:09.947Z,98654.19
2018-09-29T17:56:39.058Z,98654.86
2018-09-29T17:59:08.235Z,98655.52
2018-09-29T18:01:36.877Z,98655.86
2018-09-29T18:04:05.938Z,98659.92
2018-09-29T18:06:34.564Z,98660.29
2018-09-29T18:09:03.811Z,98663.06
2018-09-29T18:11:33.224Z,98657.39
2018-09-29T18:14:01.878Z,98657.65
2018-09-29T18:16:30.814Z,98650.99
2018-09-29T18:18:59.523Z,98654.05
2018-09-29T18:21:28.307Z,98656.31
2018-09-29T18:23:57.434Z,98651.41
2018-09-29T18:26:26.559Z,98652.30
2018-09-29T18:28:55.683Z,98661.78
2018-09-29T18:31:24.460Z,98654.31
2018-09-29T18:33:53.158Z,98659.47
2018-09-29T18:36:22.052Z,98661.73
2018-09-29T18:38:51.054Z,98650.20
2018-09-29T18:41:19.797Z,98654.01
2018-09-29T18:43:48.477Z,98656.20
2018-09-29T18:46:17.337Z,98660.52
2018-09-29T18:48:46.123Z,98666.31
2018-09-29T18:51:14.898Z,98660.70
2018-09-29T18:53:43.677Z,98666.66
2018-09-29T18:56:12.408Z,98668.61
2018-09-29T18:58:41.113Z,98670.84
2018-09-29T19:01:09.906Z,98669.24
2018-09-29T19:03:38.626Z,98671.18
2018-09-29T19:06:07.612Z,98665.57
2018-09-29T19:08:36.436Z,98671.05
2018-09-29T19:11:05.189Z,98672.48
2018-09-29T19:13:33.933Z,98671.17
2018-09-29T19:16:03.090Z,98663.11
2018-09-29T19:18:31.760Z,98668.55
2018-09-29T19:21:00.523Z,98663.98
2018-09-29T19:23:29.203Z,98664.53
2018-09-29T19:25:57.970Z,98658.91
2018-09-29T19:28:26.640Z,98654.38
2018-09-29T19:30:55.321Z,98654.97
2018-09-29T19:33:24.094Z,98657.45
2018-09-29T19:35:52.941Z,98653.72
2018-09-29T19:38:21.805Z,98656.67
2018-09-29T19:40:50.521Z,98652.91
2018-09-29T19:43:19.218Z,98650.28
2018-09-29T19:45:48.101Z,98655.19
2018-09-29T19:48:16.721Z,98650.05
2018-09-29T19:50:45.458Z,98643.56
2018-09-29T19:53:14.185Z,98644.66
2018-09-29T19:55:43.004Z,98646.58
2018-09-29T19:58:11.737Z,98645.78
2018-09-29T20:00:40.395Z,98650.95
2018-09-29T20:03:09.109Z,98651.75
2018-09-29T20:05:38.355Z,98655.80
2018-09-29T20:08:07.144Z,98653.96
2018-09-29T20:10:35.895Z,98654.25
2018-09-29T20:13:04.593Z,98650.48
2018-09-29T20:15:33.363Z,98648.88
2018-09-29T20:18:02.098Z,98646.20
2018-09-29T20:20:30.949Z,98647.38
2018-09-29T20:22:59.733Z,98652.27
2018-09-29T20:25:28.425Z,98647.96
2018-09-29T20:27:57.358Z,98652.32
2018-09-29T20:30:26.060Z,98652.10
2018-09-29T20:32:54.799Z,98652.65
2018-09-29T20:35:23.486Z,98661.53
2018-09-29T20:37:52.158Z,98661.02
2018-09-29T20:40:21.195Z,98660.49
2018-09-29T20:42:49.883Z,98658.62
2018-09-29T20:45:18.626Z,98660.00
2018-09-29T20:47:47.685Z,98658.69
2018-09-29T20:50:16.513Z,98656.30
2018-09-29T20:52:45.598Z,98653.33
2018-09-29T20:55:14.311Z,98653.38
2018-09-29T20:57:43.131Z,98650.95
2018-09-29T21:00:11.957Z,98651.47
2018-09-29T21:02:40.714Z,98649.33
2018-09-29T21:05:09.482Z,98649.03
2018-09-29T21:07:38.210Z,98642.32
2018-09-29T21:10:06.959Z,98649.88
2018-09-29T21:12:35.869Z,98642.63
2018-09-29T21:15:04.623Z,98647.47
2018-09-29T21:17:33.254Z,98645.63
2018-09-29T21:20:02.108Z,98642.38
2018-09-29T21:22:30.846Z,98647.22
2018-09-29T21:24:59.551Z,98636.99
2018-09-29T21:27:28.253Z,98643.20
2018-09-29T21:29:57.051Z,98643.50
2018-09-29T21:32:25.726Z,98643.75
2018-09-29T21:34:54.534Z,98640.80
2018-09-29T21:37:23.243Z,98638.92
2018-09-29T21:39:51.978Z,98637.59
2018-09-29T21:42:20.672Z,98640.28
2018-09-29T21:44:49.380Z,98640.84
2018-09-29T21:47:18.030Z,98647.02
2018-09-29T21:49:46.873Z,98642.45
2018-09-29T21:52:15.569Z,98639.74
2018-09-29T21:54:44.429Z,98638.67
2018-09-29T21:57:13.139Z,98638.67
2018-09-29T21:59:41.905Z,98634.89
2018-09-29T22:02:10.714Z,98625.75
2018-09-29T22:04:39.580Z,98629.27
2018-09-29T22:07:08.248Z,98624.42
2018-09-29T22:09:36.906Z,98622.02
2018-09-29T22:12:05.567Z,98615.59
2018-09-29T22:14:34.349Z,98614.22
2018-09-29T22:17:03.345Z,98617.47
2018-09-29T22:19:32.111Z,98616.92
2018-09-29T22:22:01.106Z,98614.52
2018-09-29T22:24:29.909Z,98614.80
2018-09-29T22:26:58.562Z,98593.52
2018-09-29T22:29:27.397Z,98599.19
2018-09-29T22:31:56.193Z,98587.90
2018-09-29T22:34:24.934Z,98605.63
2018-09-29T22:36:53.677Z,98601.34
2018-09-29T22:39:22.468Z,98598.92
2018-09-29T22:41:51.345Z,98590.87
2018-09-29T22:44:20.002Z,98589.50
2018-09-29T22:46:48.724Z,98594.61
2018-09-29T22:49:17.534Z,98588.69
2018-09-29T22:51:46.327Z,98590.58
2018-09-29T22:54:15.185Z,98587.36
2018-09-29T22:56:43.933Z,98588.67
2018-09-29T22:59:12.722Z,98585.19
2018-09-29T23:01:41.472Z,98577.95
2018-09-29T23:04:10.218Z,98583.30
2018-09-29T23:06:39.014Z,98579.81
2018-09-29T23:09:10.366Z,98572.55
2018-09-29T23:11:39.070Z,98573.64
2018-09-29T23:14:08.094Z,98570.39
2018-09-29T23:16:36.861Z,98575.22
2018-09-29T23:19:05.913Z,98574.44
2018-09-29T23:21:34.597Z,98571.20
2018-09-29T23:24:03.422Z,98573.60
2018-09-29T23:26:32.160Z,98562.06
2018-09-29T23:29:00.842Z,98562.30
2018-09-29T23:31:29.519Z,98563.64
2018-09-29T23:33:58.173Z,98553.18
2018-09-29T23:36:26.891Z,98554.78
2018-09-29T23:38:55.613Z,98550.23
2018-09-29T23:41:24.390Z,98553.17
2018-09-29T23:43:53.356Z,98553.70
2018-09-29T23:46:22.119Z,98551.02
2018-09-29T23:48:50.910Z,98550.22
2018-09-29T23:51:19.897Z,98541.58
2018-09-29T23:53:48.665Z,98540.55
2018-09-29T23:56:17.682Z,98544.26
2018-09-29T23:58:46.373Z,98541.35
